sensor_id;sensor_type;location;lat;lon;timestamp;P1;durP1;ratioP1;P2;durP2;ratioP2
1454;SDS011;721;48.168;12.818;2022-09-09T00:00:00;1.57;;;1.40;;
1454;SDS011;721;48.168;12.818;2022-09-09T00:02:37;1.05;;;0.98;;
1454;SDS011;721;48.168;12.818;2022-09-09T00:05:14;2.93;;;1.17;;
1454;SDS011;721;48.168;12.818;2022-09-09T00:07:51;1.10;;;1.00;;
1454;SDS011;721;48.168;12.818;2022-09-09T00:10:27;2.17;;;0.95;;
1454;SDS011;721;48.168;12.818;2022-09-09T00:13:07;1.35;;;1.20;;
1454;SDS011;721;48.168;12.818;2022-09-09T00:15:43;1.67;;;1.40;;
1454;SDS011;721;48.168;12.818;2022-09-09T00:18:21;0.80;;;0.80;;
1454;SDS011;721;48.168;12.818;2022-09-09T00:20:55;1.17;;;1.17;;
1454;SDS011;721;48.168;12.818;2022-09-09T00:23:28;1.30;;;0.85;;
1454;SDS011;721;48.168;12.818;2022-09-09T00:26:03;1.00;;;1.00;;
1454;SDS011;721;48.168;12.818;2022-09-09T00:28:38;3.10;;;1.05;;
1454;SDS011;721;48.168;12.818;2022-09-09T00:31:18;1.63;;;1.17;;
1454;SDS011;721;48.168;12.818;2022-09-09T00:33:49;1.17;;;1.13;;
1454;SDS011;721;48.168;12.818;2022-09-09T00:36:19;1.50;;;1.40;;
1454;SDS011;721;48.168;12.818;2022-09-09T00:38:51;1.13;;;1.02;;
1454;SDS011;721;48.168;12.818;2022-09-09T00:41:22;1.00;;;1.00;;
1454;SDS011;721;48.168;12.818;2022-09-09T00:43:58;1.58;;;1.15;;
1454;SDS011;721;48.168;12.818;2022-09-09T00:46:41;1.88;;;1.25;;
1454;SDS011;721;48.168;12.818;2022-09-09T00:49:23;0.90;;;0.90;;
1454;SDS011;721;48.168;12.818;2022-09-09T00:52:01;1.23;;;0.77;;
1454;SDS011;721;48.168;12.818;2022-09-09T00:54:40;1.98;;;1.00;;
1454;SDS011;721;48.168;12.818;2022-09-09T00:57:23;1.35;;;1.23;;
1454;SDS011;721;48.168;12.818;2022-09-09T01:00:15;3.17;;;1.40;;
1454;SDS011;721;48.168;12.818;2022-09-09T01:02:46;1.13;;;1.13;;
1454;SDS011;721;48.168;12.818;2022-09-09T01:05:20;1.35;;;1.25;;
1454;SDS011;721;48.168;12.818;2022-09-09T01:07:55;1.73;;;0.70;;
1454;SDS011;721;48.168;12.818;2022-09-09T01:10:29;1.35;;;0.90;;
1454;SDS011;721;48.168;12.818;2022-09-09T01:13:04;3.13;;;1.15;;
1454;SDS011;721;48.168;12.818;2022-09-09T01:15:41;1.23;;;1.00;;
1454;SDS011;721;48.168;12.818;2022-09-09T01:18:12;0.88;;;0.88;;
1454;SDS011;721;48.168;12.818;2022-09-09T01:20:44;0.70;;;0.70;;
1454;SDS011;721;48.168;12.818;2022-09-09T01:23:22;1.70;;;1.00;;
1454;SDS011;721;48.168;12.818;2022-09-09T01:26:10;1.35;;;1.08;;
1454;SDS011;721;48.168;12.818;2022-09-09T01:28:44;0.90;;;0.90;;
1454;SDS011;721;48.168;12.818;2022-09-09T01:31:15;1.83;;;0.90;;
1454;SDS011;721;48.168;12.818;2022-09-09T01:33:44;1.00;;;0.85;;
1454;SDS011;721;48.168;12.818;2022-09-09T01:36:12;1.60;;;1.50;;
1454;SDS011;721;48.168;12.818;2022-09-09T01:38:45;2.85;;;1.45;;
1454;SDS011;721;48.168;12.818;2022-09-09T01:41:14;1.30;;;1.10;;
1454;SDS011;721;48.168;12.818;2022-09-09T01:43:41;0.80;;;0.80;;
1454;SDS011;721;48.168;12.818;2022-09-09T01:46:08;0.90;;;0.90;;
1454;SDS011;721;48.168;12.818;2022-09-09T01:48:37;4.50;;;1.40;;
1454;SDS011;721;48.168;12.818;2022-09-09T01:51:03;0.95;;;0.85;;
1454;SDS011;721;48.168;12.818;2022-09-09T01:53:31;0.93;;;0.88;;
1454;SDS011;721;48.168;12.818;2022-09-09T01:56:00;1.38;;;1.27;;
1454;SDS011;721;48.168;12.818;2022-09-09T01:58:37;1.85;;;1.10;;
1454;SDS011;721;48.168;12.818;2022-09-09T02:01:15;4.00;;;1.67;;
1454;SDS011;721;48.168;12.818;2022-09-09T02:03:52;2.83;;;1.00;;
1454;SDS011;721;48.168;12.818;2022-09-09T02:06:25;2.50;;;1.25;;
1454;SDS011;721;48.168;12.818;2022-09-09T02:08:55;1.23;;;1.13;;
1454;SDS011;721;48.168;12.818;2022-09-09T02:11:25;1.00;;;0.90;;
1454;SDS011;721;48.168;12.818;2022-09-09T02:13:56;0.93;;;0.90;;
1454;SDS011;721;48.168;12.818;2022-09-09T02:16:27;1.10;;;1.00;;
1454;SDS011;721;48.168;12.818;2022-09-09T02:19:00;3.17;;;1.10;;
1454;SDS011;721;48.168;12.818;2022-09-09T02:21:30;1.38;;;1.27;;
1454;SDS011;721;48.168;12.818;2022-09-09T02:24:00;0.80;;;0.80;;
1454;SDS011;721;48.168;12.818;2022-09-09T02:26:30;2.33;;;1.07;;
1454;SDS011;721;48.168;12.818;2022-09-09T02:29:02;1.00;;;0.90;;
1454;SDS011;721;48.168;12.818;2022-09-09T02:31:33;1.20;;;1.20;;
1454;SDS011;721;48.168;12.818;2022-09-09T02:34:02;1.20;;;1.08;;
1454;SDS011;721;48.168;12.818;2022-09-09T02:36:32;6.28;;;1.70;;
1454;SDS011;721;48.168;12.818;2022-09-09T02:39:00;1.05;;;0.90;;
1454;SDS011;721;48.168;12.818;2022-09-09T02:41:32;1.20;;;1.02;;
1454;SDS011;721;48.168;12.818;2022-09-09T02:44:02;1.20;;;1.10;;
1454;SDS011;721;48.168;12.818;2022-09-09T02:46:46;1.48;;;1.00;;
1454;SDS011;721;48.168;12.818;2022-09-09T02:49:35;1.73;;;1.63;;
1454;SDS011;721;48.168;12.818;2022-09-09T02:52:08;2.60;;;2.33;;
1454;SDS011;721;48.168;12.818;2022-09-09T02:54:41;1.40;;;1.30;;
1454;SDS011;721;48.168;12.818;2022-09-09T02:57:10;1.63;;;1.20;;
1454;SDS011;721;48.168;12.818;2022-09-09T02:59:40;1.77;;;1.27;;
1454;SDS011;721;48.168;12.818;2022-09-09T03:02:07;1.55;;;1.17;;
1454;SDS011;721;48.168;12.818;2022-09-09T03:04:36;2.22;;;1.30;;
1454;SDS011;721;48.168;12.818;2022-09-09T03:07:03;1.03;;;1.03;;
1454;SDS011;721;48.168;12.818;2022-09-09T03:09:31;2.35;;;1.00;;
1454;SDS011;721;48.168;12.818;2022-09-09T03:11:58;0.97;;;0.97;;
1454;SDS011;721;48.168;12.818;2022-09-09T03:14:25;2.00;;;1.07;;
1454;SDS011;721;48.168;12.818;2022-09-09T03:16:55;0.80;;;0.80;;
1454;SDS011;721;48.168;12.818;2022-09-09T03:19:23;1.23;;;1.23;;
1454;SDS011;721;48.168;12.818;2022-09-09T03:21:50;2.50;;;1.10;;
1454;SDS011;721;48.168;12.818;2022-09-09T03:24:17;4.03;;;1.37;;
1454;SDS011;721;48.168;12.818;2022-09-09T03:26:44;1.50;;;1.27;;
1454;SDS011;721;48.168;12.818;2022-09-09T03:29:12;1.30;;;1.20;;
1454;SDS011;721;48.168;12.818;2022-09-09T03:31:39;0.80;;;0.80;;
1454;SDS011;721;48.168;12.818;2022-09-09T03:34:09;1.37;;;1.13;;
1454;SDS011;721;48.168;12.818;2022-09-09T03:36:36;0.73;;;0.73;;
1454;SDS011;721;48.168;12.818;2022-09-09T03:39:03;1.20;;;1.10;;
1454;SDS011;721;48.168;12.818;2022-09-09T03:41:30;1.90;;;1.38;;
1454;SDS011;721;48.168;12.818;2022-09-09T03:43:57;1.47;;;1.20;;
1454;SDS011;721;48.168;12.818;2022-09-09T03:46:24;1.30;;;1.20;;
1454;SDS011;721;48.168;12.818;2022-09-09T03:48:52;1.23;;;1.00;;
1454;SDS011;721;48.168;12.818;2022-09-09T03:51:20;2.35;;;1.25;;
1454;SDS011;721;48.168;12.818;2022-09-09T03:53:47;1.83;;;1.60;;
1454;SDS011;721;48.168;12.818;2022-09-09T03:56:14;1.53;;;0.90;;
1454;SDS011;721;48.168;12.818;2022-09-09T03:58:46;1.23;;;1.10;;
1454;SDS011;721;48.168;12.818;2022-09-09T04:01:13;2.65;;;1.70;;
1454;SDS011;721;48.168;12.818;2022-09-09T04:03:42;2.70;;;1.30;;
1454;SDS011;721;48.168;12.818;2022-09-09T04:06:10;0.80;;;0.80;;
1454;SDS011;721;48.168;12.818;2022-09-09T04:08:40;1.40;;;1.30;;
1454;SDS011;721;48.168;12.818;2022-09-09T04:11:08;1.73;;;1.00;;
1454;SDS011;721;48.168;12.818;2022-09-09T04:13:36;1.57;;;1.47;;
1454;SDS011;721;48.168;12.818;2022-09-09T04:16:04;1.50;;;1.40;;
1454;SDS011;721;48.168;12.818;2022-09-09T04:18:31;3.80;;;1.40;;
1454;SDS011;721;48.168;12.818;2022-09-09T04:20:59;1.83;;;1.20;;
1454;SDS011;721;48.168;12.818;2022-09-09T04:23:28;1.70;;;1.52;;
1454;SDS011;721;48.168;12.818;2022-09-09T04:25:57;1.50;;;1.40;;
1454;SDS011;721;48.168;12.818;2022-09-09T04:28:26;3.17;;;1.35;;
1454;SDS011;721;48.168;12.818;2022-09-09T04:30:55;1.47;;;1.37;;
1454;SDS011;721;48.168;12.818;2022-09-09T04:33:23;2.40;;;1.43;;
1454;SDS011;721;48.168;12.818;2022-09-09T04:35:51;1.97;;;1.40;;
1454;SDS011;721;48.168;12.818;2022-09-09T04:38:20;1.40;;;1.25;;
1454;SDS011;721;48.168;12.818;2022-09-09T04:40:47;2.33;;;1.77;;
1454;SDS011;721;48.168;12.818;2022-09-09T04:43:17;2.10;;;1.60;;
1454;SDS011;721;48.168;12.818;2022-09-09T04:45:53;2.05;;;1.48;;
1454;SDS011;721;48.168;12.818;2022-09-09T04:48:20;2.77;;;1.43;;
1454;SDS011;721;48.168;12.818;2022-09-09T04:50:55;2.13;;;1.30;;
1454;SDS011;721;48.168;12.818;2022-09-09T04:53:22;1.20;;;1.10;;
1454;SDS011;721;48.168;12.818;2022-09-09T04:55:50;2.50;;;1.83;;
1454;SDS011;721;48.168;12.818;2022-09-09T04:58:18;3.30;;;1.37;;
1454;SDS011;721;48.168;12.818;2022-09-09T05:00:46;2.17;;;1.33;;
1454;SDS011;721;48.168;12.818;2022-09-09T05:03:13;1.53;;;1.30;;
1454;SDS011;721;48.168;12.818;2022-09-09T05:05:40;1.53;;;1.30;;
1454;SDS011;721;48.168;12.818;2022-09-09T05:08:07;2.33;;;1.10;;
1454;SDS011;721;48.168;12.818;2022-09-09T05:10:36;1.40;;;1.30;;
1454;SDS011;721;48.168;12.818;2022-09-09T05:13:04;1.50;;;1.40;;
1454;SDS011;721;48.168;12.818;2022-09-09T05:15:32;1.20;;;1.10;;
1454;SDS011;721;48.168;12.818;2022-09-09T05:18:01;2.20;;;1.60;;
1454;SDS011;721;48.168;12.818;2022-09-09T05:20:28;1.40;;;1.30;;
1454;SDS011;721;48.168;12.818;2022-09-09T05:22:55;1.40;;;1.05;;
1454;SDS011;721;48.168;12.818;2022-09-09T05:25:23;1.37;;;1.20;;
1454;SDS011;721;48.168;12.818;2022-09-09T05:27:50;1.17;;;1.08;;
1454;SDS011;721;48.168;12.818;2022-09-09T05:30:18;1.20;;;1.13;;
1454;SDS011;721;48.168;12.818;2022-09-09T05:32:47;1.30;;;1.20;;
1454;SDS011;721;48.168;12.818;2022-09-09T05:35:14;1.67;;;1.57;;
1454;SDS011;721;48.168;12.818;2022-09-09T05:37:41;2.37;;;1.80;;
1454;SDS011;721;48.168;12.818;2022-09-09T05:40:08;1.43;;;1.37;;
1454;SDS011;721;48.168;12.818;2022-09-09T05:42:36;1.33;;;1.20;;
1454;SDS011;721;48.168;12.818;2022-09-09T05:45:04;1.53;;;1.43;;
1454;SDS011;721;48.168;12.818;2022-09-09T05:47:32;1.50;;;1.40;;
1454;SDS011;721;48.168;12.818;2022-09-09T05:50:01;1.10;;;1.10;;
1454;SDS011;721;48.168;12.818;2022-09-09T05:52:28;2.00;;;1.30;;
1454;SDS011;721;48.168;12.818;2022-09-09T05:54:55;4.38;;;1.60;;
1454;SDS011;721;48.168;12.818;2022-09-09T05:57:24;1.50;;;1.40;;
1454;SDS011;721;48.168;12.818;2022-09-09T05:59:50;4.77;;;1.60;;
1454;SDS011;721;48.168;12.818;2022-09-09T06:02:18;2.77;;;1.37;;
1454;SDS011;721;48.168;12.818;2022-09-09T06:04:45;4.00;;;1.47;;
1454;SDS011;721;48.168;12.818;2022-09-09T06:07:13;1.98;;;1.77;;
1454;SDS011;721;48.168;12.818;2022-09-09T06:09:40;2.93;;;1.43;;
1454;SDS011;721;48.168;12.818;2022-09-09T06:12:07;2.50;;;1.50;;
1454;SDS011;721;48.168;12.818;2022-09-09T06:14:34;4.23;;;1.70;;
1454;SDS011;721;48.168;12.818;2022-09-09T06:17:01;2.90;;;1.77;;
1454;SDS011;721;48.168;12.818;2022-09-09T06:19:28;3.50;;;1.80;;
1454;SDS011;721;48.168;12.818;2022-09-09T06:21:55;2.43;;;1.90;;
1454;SDS011;721;48.168;12.818;2022-09-09T06:24:24;4.40;;;1.50;;
1454;SDS011;721;48.168;12.818;2022-09-09T06:26:51;4.00;;;1.60;;
1454;SDS011;721;48.168;12.818;2022-09-09T06:29:19;1.87;;;1.50;;
1454;SDS011;721;48.168;12.818;2022-09-09T06:31:45;1.60;;;1.50;;
1454;SDS011;721;48.168;12.818;2022-09-09T06:34:12;3.97;;;2.30;;
1454;SDS011;721;48.168;12.818;2022-09-09T06:36:39;2.53;;;1.77;;
1454;SDS011;721;48.168;12.818;2022-09-09T06:39:06;1.43;;;1.37;;
1454;SDS011;721;48.168;12.818;2022-09-09T06:41:35;1.70;;;1.40;;
1454;SDS011;721;48.168;12.818;2022-09-09T06:44:03;1.70;;;1.60;;
1454;SDS011;721;48.168;12.818;2022-09-09T06:46:30;1.07;;;0.97;;
1454;SDS011;721;48.168;12.818;2022-09-09T06:48:58;1.30;;;1.20;;
1454;SDS011;721;48.168;12.818;2022-09-09T06:51:26;1.50;;;1.40;;
1454;SDS011;721;48.168;12.818;2022-09-09T06:53:54;5.27;;;1.90;;
1454;SDS011;721;48.168;12.818;2022-09-09T06:56:23;3.73;;;1.20;;
1454;SDS011;721;48.168;12.818;2022-09-09T06:58:54;2.87;;;1.53;;
1454;SDS011;721;48.168;12.818;2022-09-09T07:01:23;1.67;;;1.57;;
1454;SDS011;721;48.168;12.818;2022-09-09T07:03:53;4.37;;;2.17;;
1454;SDS011;721;48.168;12.818;2022-09-09T07:06:22;2.20;;;1.80;;
1454;SDS011;721;48.168;12.818;2022-09-09T07:08:50;1.50;;;1.40;;
1454;SDS011;721;48.168;12.818;2022-09-09T07:11:18;1.20;;;1.10;;
1454;SDS011;721;48.168;12.818;2022-09-09T07:13:45;4.70;;;1.47;;
1454;SDS011;721;48.168;12.818;2022-09-09T07:16:14;4.70;;;1.57;;
1454;SDS011;721;48.168;12.818;2022-09-09T07:18:43;1.77;;;1.50;;
1454;SDS011;721;48.168;12.818;2022-09-09T07:21:11;1.27;;;1.17;;
1454;SDS011;721;48.168;12.818;2022-09-09T07:23:39;3.03;;;1.23;;
1454;SDS011;721;48.168;12.818;2022-09-09T07:26:10;2.13;;;1.93;;
1454;SDS011;721;48.168;12.818;2022-09-09T07:28:38;1.37;;;1.27;;
1454;SDS011;721;48.168;12.818;2022-09-09T07:31:06;2.20;;;1.30;;
1454;SDS011;721;48.168;12.818;2022-09-09T07:33:40;1.53;;;1.43;;
1454;SDS011;721;48.168;12.818;2022-09-09T07:36:07;2.30;;;1.60;;
1454;SDS011;721;48.168;12.818;2022-09-09T07:38:39;3.97;;;1.53;;
1454;SDS011;721;48.168;12.818;2022-09-09T07:41:09;0.90;;;0.87;;
1454;SDS011;721;48.168;12.818;2022-09-09T07:43:37;1.27;;;1.17;;
1454;SDS011;721;48.168;12.818;2022-09-09T07:46:06;1.20;;;1.10;;
1454;SDS011;721;48.168;12.818;2022-09-09T07:48:33;1.90;;;0.93;;
1454;SDS011;721;48.168;12.818;2022-09-09T07:51:06;2.60;;;1.30;;
1454;SDS011;721;48.168;12.818;2022-09-09T07:53:34;1.10;;;1.00;;
1454;SDS011;721;48.168;12.818;2022-09-09T07:56:03;2.90;;;1.20;;
1454;SDS011;721;48.168;12.818;2022-09-09T07:58:31;1.37;;;1.27;;
1454;SDS011;721;48.168;12.818;2022-09-09T08:00:57;1.20;;;1.10;;
1454;SDS011;721;48.168;12.818;2022-09-09T08:03:24;1.37;;;1.00;;
1454;SDS011;721;48.168;12.818;2022-09-09T08:05:51;2.77;;;0.93;;
1454;SDS011;721;48.168;12.818;2022-09-09T08:08:19;1.47;;;1.03;;
1454;SDS011;721;48.168;12.818;2022-09-09T08:10:46;1.10;;;1.00;;
1454;SDS011;721;48.168;12.818;2022-09-09T08:13:13;2.00;;;1.10;;
1454;SDS011;721;48.168;12.818;2022-09-09T08:15:40;3.53;;;1.60;;
1454;SDS011;721;48.168;12.818;2022-09-09T08:18:07;1.10;;;1.00;;
1454;SDS011;721;48.168;12.818;2022-09-09T08:20:35;2.67;;;1.57;;
1454;SDS011;721;48.168;12.818;2022-09-09T08:23:02;1.37;;;1.27;;
1454;SDS011;721;48.168;12.818;2022-09-09T08:25:31;0.77;;;0.77;;
1454;SDS011;721;48.168;12.818;2022-09-09T08:27:59;2.00;;;1.20;;
1454;SDS011;721;48.168;12.818;2022-09-09T08:30:26;1.13;;;1.10;;
1454;SDS011;721;48.168;12.818;2022-09-09T08:32:53;3.60;;;1.17;;
1454;SDS011;721;48.168;12.818;2022-09-09T08:35:20;0.90;;;0.90;;
1454;SDS011;721;48.168;12.818;2022-09-09T08:37:46;1.80;;;1.13;;
1454;SDS011;721;48.168;12.818;2022-09-09T08:40:17;0.90;;;0.90;;
1454;SDS011;721;48.168;12.818;2022-09-09T08:42:50;0.80;;;0.80;;
1454;SDS011;721;48.168;12.818;2022-09-09T08:45:20;1.67;;;1.10;;
1454;SDS011;721;48.168;12.818;2022-09-09T08:47:55;1.20;;;1.10;;
1454;SDS011;721;48.168;12.818;2022-09-09T08:50:34;1.77;;;1.40;;
1454;SDS011;721;48.168;12.818;2022-09-09T08:53:04;1.70;;;1.10;;
1454;SDS011;721;48.168;12.818;2022-09-09T08:55:38;1.90;;;1.33;;
1454;SDS011;721;48.168;12.818;2022-09-09T08:58:13;1.17;;;1.07;;
1454;SDS011;721;48.168;12.818;2022-09-09T09:00:57;1.17;;;1.07;;
1454;SDS011;721;48.168;12.818;2022-09-09T09:03:38;1.43;;;1.33;;
1454;SDS011;721;48.168;12.818;2022-09-09T09:06:14;0.97;;;0.97;;
1454;SDS011;721;48.168;12.818;2022-09-09T09:08:55;1.83;;;1.33;;
1454;SDS011;721;48.168;12.818;2022-09-09T09:11:33;2.17;;;1.20;;
1454;SDS011;721;48.168;12.818;2022-09-09T09:14:03;1.33;;;1.23;;
1454;SDS011;721;48.168;12.818;2022-09-09T09:16:38;1.63;;;1.40;;
1454;SDS011;721;48.168;12.818;2022-09-09T09:19:13;0.90;;;0.80;;
1454;SDS011;721;48.168;12.818;2022-09-09T09:21:42;2.27;;;1.50;;
1454;SDS011;721;48.168;12.818;2022-09-09T09:24:13;4.90;;;2.40;;
1454;SDS011;721;48.168;12.818;2022-09-09T09:26:44;1.93;;;1.83;;
1454;SDS011;721;48.168;12.818;2022-09-09T09:29:13;1.43;;;1.33;;
1454;SDS011;721;48.168;12.818;2022-09-09T09:31:43;3.30;;;3.00;;
1454;SDS011;721;48.168;12.818;2022-09-09T09:34:13;3.43;;;2.20;;
1454;SDS011;721;48.168;12.818;2022-09-09T09:36:40;1.43;;;1.33;;
1454;SDS011;721;48.168;12.818;2022-09-09T09:39:09;1.33;;;1.23;;
1454;SDS011;721;48.168;12.818;2022-09-09T09:41:37;1.57;;;1.47;;
1454;SDS011;721;48.168;12.818;2022-09-09T09:44:18;4.80;;;2.37;;
1454;SDS011;721;48.168;12.818;2022-09-09T09:46:50;2.23;;;1.37;;
1454;SDS011;721;48.168;12.818;2022-09-09T09:49:18;2.87;;;1.40;;
1454;SDS011;721;48.168;12.818;2022-09-09T09:51:44;3.73;;;1.50;;
1454;SDS011;721;48.168;12.818;2022-09-09T09:54:17;4.00;;;1.30;;
1454;SDS011;721;48.168;12.818;2022-09-09T09:56:52;3.63;;;1.60;;
1454;SDS011;721;48.168;12.818;2022-09-09T09:59:20;1.90;;;1.77;;
1454;SDS011;721;48.168;12.818;2022-09-09T10:01:50;2.57;;;1.80;;
1454;SDS011;721;48.168;12.818;2022-09-09T10:04:17;1.40;;;1.27;;
1454;SDS011;721;48.168;12.818;2022-09-09T10:06:45;3.17;;;1.50;;
1454;SDS011;721;48.168;12.818;2022-09-09T10:09:22;3.50;;;1.27;;
1454;SDS011;721;48.168;12.818;2022-09-09T10:11:52;1.63;;;1.53;;
1454;SDS011;721;48.168;12.818;2022-09-09T10:14:24;1.73;;;1.10;;
1454;SDS011;721;48.168;12.818;2022-09-09T10:17:12;1.50;;;1.30;;
1454;SDS011;721;48.168;12.818;2022-09-09T10:19:49;2.60;;;1.50;;
1454;SDS011;721;48.168;12.818;2022-09-09T10:22:25;1.47;;;1.37;;
1454;SDS011;721;48.168;12.818;2022-09-09T10:27:55;2.10;;;1.00;;
1454;SDS011;721;48.168;12.818;2022-09-09T10:30:49;1.77;;;1.20;;
1454;SDS011;721;48.168;12.818;2022-09-09T10:33:28;3.13;;;1.40;;
1454;SDS011;721;48.168;12.818;2022-09-09T10:36:01;1.57;;;1.47;;
1454;SDS011;721;48.168;12.818;2022-09-09T10:38:39;4.00;;;1.90;;
1454;SDS011;721;48.168;12.818;2022-09-09T10:41:13;2.00;;;1.70;;
1454;SDS011;721;48.168;12.818;2022-09-09T10:43:55;1.87;;;1.67;;
1454;SDS011;721;48.168;12.818;2022-09-09T10:46:33;2.10;;;1.60;;
1454;SDS011;721;48.168;12.818;2022-09-09T10:49:13;3.27;;;1.67;;
1454;SDS011;721;48.168;12.818;2022-09-09T10:51:49;2.10;;;1.70;;
1454;SDS011;721;48.168;12.818;2022-09-09T10:54:26;2.03;;;1.63;;
1454;SDS011;721;48.168;12.818;2022-09-09T10:57:07;2.03;;;1.30;;
1454;SDS011;721;48.168;12.818;2022-09-09T10:59:40;3.30;;;2.30;;
1454;SDS011;721;48.168;12.818;2022-09-09T11:02:13;2.60;;;2.03;;
1454;SDS011;721;48.168;12.818;2022-09-09T11:04:47;2.27;;;2.17;;
1454;SDS011;721;48.168;12.818;2022-09-09T11:07:21;2.07;;;1.97;;
1454;SDS011;721;48.168;12.818;2022-09-09T11:09:54;2.57;;;2.00;;
1454;SDS011;721;48.168;12.818;2022-09-09T11:12:26;2.40;;;2.20;;
1454;SDS011;721;48.168;12.818;2022-09-09T11:14:57;2.70;;;2.23;;
1454;SDS011;721;48.168;12.818;2022-09-09T11:17:30;3.13;;;1.93;;
1454;SDS011;721;48.168;12.818;2022-09-09T11:20:06;2.00;;;1.90;;
1454;SDS011;721;48.168;12.818;2022-09-09T11:22:37;8.53;;;2.97;;
1454;SDS011;721;48.168;12.818;2022-09-09T11:25:10;4.53;;;2.30;;
1454;SDS011;721;48.168;12.818;2022-09-09T11:27:43;6.63;;;2.67;;
1454;SDS011;721;48.168;12.818;2022-09-09T11:30:24;3.20;;;2.47;;
1454;SDS011;721;48.168;12.818;2022-09-09T11:33:16;4.67;;;2.70;;
1454;SDS011;721;48.168;12.818;2022-09-09T11:36:10;2.37;;;2.17;;
1454;SDS011;721;48.168;12.818;2022-09-09T11:38:50;3.93;;;2.50;;
1454;SDS011;721;48.168;12.818;2022-09-09T11:41:18;2.43;;;2.00;;
1454;SDS011;721;48.168;12.818;2022-09-09T11:43:47;4.53;;;2.50;;
1454;SDS011;721;48.168;12.818;2022-09-09T11:46:16;3.93;;;2.60;;
1454;SDS011;721;48.168;12.818;2022-09-09T11:48:56;2.23;;;2.07;;
1454;SDS011;721;48.168;12.818;2022-09-09T11:51:27;2.93;;;2.53;;
1454;SDS011;721;48.168;12.818;2022-09-09T11:53:56;2.47;;;2.27;;
1454;SDS011;721;48.168;12.818;2022-09-09T11:56:27;3.37;;;2.40;;
1454;SDS011;721;48.168;12.818;2022-09-09T11:58:57;3.60;;;3.33;;
1454;SDS011;721;48.168;12.818;2022-09-09T12:01:33;3.20;;;2.80;;
1454;SDS011;721;48.168;12.818;2022-09-09T12:04:06;5.77;;;3.00;;
1454;SDS011;721;48.168;12.818;2022-09-09T12:06:44;3.60;;;3.30;;
1454;SDS011;721;48.168;12.818;2022-09-09T12:09:16;4.70;;;2.13;;
1454;SDS011;721;48.168;12.818;2022-09-09T12:11:48;5.80;;;1.93;;
1454;SDS011;721;48.168;12.818;2022-09-09T12:14:22;3.97;;;3.03;;
1454;SDS011;721;48.168;12.818;2022-09-09T12:17:08;3.10;;;2.70;;
1454;SDS011;721;48.168;12.818;2022-09-09T12:19:43;4.93;;;2.60;;
1454;SDS011;721;48.168;12.818;2022-09-09T12:22:14;3.10;;;2.57;;
1454;SDS011;721;48.168;12.818;2022-09-09T12:24:49;3.37;;;2.87;;
1454;SDS011;721;48.168;12.818;2022-09-09T12:27:21;4.00;;;3.00;;
1454;SDS011;721;48.168;12.818;2022-09-09T12:29:53;4.47;;;2.73;;
1454;SDS011;721;48.168;12.818;2022-09-09T12:32:25;3.80;;;2.90;;
1454;SDS011;721;48.168;12.818;2022-09-09T12:34:54;4.53;;;2.30;;
1454;SDS011;721;48.168;12.818;2022-09-09T12:37:26;3.70;;;2.60;;
1454;SDS011;721;48.168;12.818;2022-09-09T12:39:58;2.50;;;2.30;;
1454;SDS011;721;48.168;12.818;2022-09-09T12:42:27;3.20;;;2.77;;
1454;SDS011;721;48.168;12.818;2022-09-09T12:44:55;2.77;;;2.50;;
1454;SDS011;721;48.168;12.818;2022-09-09T12:47:24;2.70;;;2.50;;
1454;SDS011;721;48.168;12.818;2022-09-09T12:49:55;2.93;;;2.67;;
1454;SDS011;721;48.168;12.818;2022-09-09T12:52:25;4.93;;;3.17;;
1454;SDS011;721;48.168;12.818;2022-09-09T12:54:56;3.63;;;2.80;;
1454;SDS011;721;48.168;12.818;2022-09-09T12:57:24;4.43;;;2.00;;
1454;SDS011;721;48.168;12.818;2022-09-09T12:59:52;7.23;;;2.67;;
1454;SDS011;721;48.168;12.818;2022-09-09T13:02:31;4.00;;;2.70;;
1454;SDS011;721;48.168;12.818;2022-09-09T13:05:05;3.20;;;2.90;;
1454;SDS011;721;48.168;12.818;2022-09-09T13:07:40;3.63;;;3.20;;
1454;SDS011;721;48.168;12.818;2022-09-09T13:10:10;2.93;;;2.33;;
1454;SDS011;721;48.168;12.818;2022-09-09T13:12:37;2.40;;;2.20;;
1454;SDS011;721;48.168;12.818;2022-09-09T13:15:05;2.80;;;1.70;;
1454;SDS011;721;48.168;12.818;2022-09-09T13:17:48;2.50;;;2.30;;
1454;SDS011;721;48.168;12.818;2022-09-09T13:20:17;1.80;;;1.70;;
1454;SDS011;721;48.168;12.818;2022-09-09T13:22:47;2.20;;;2.10;;
1454;SDS011;721;48.168;12.818;2022-09-09T13:25:17;2.30;;;2.20;;
1454;SDS011;721;48.168;12.818;2022-09-09T13:27:51;2.77;;;2.50;;
1454;SDS011;721;48.168;12.818;2022-09-09T13:30:21;2.60;;;2.40;;
1454;SDS011;721;48.168;12.818;2022-09-09T13:32:59;8.73;;;2.73;;
1454;SDS011;721;48.168;12.818;2022-09-09T13:35:31;2.57;;;2.37;;
1454;SDS011;721;48.168;12.818;2022-09-09T13:38:00;2.87;;;2.67;;
1454;SDS011;721;48.168;12.818;2022-09-09T13:40:33;2.90;;;2.40;;
1454;SDS011;721;48.168;12.818;2022-09-09T13:43:01;2.40;;;1.80;;
1454;SDS011;721;48.168;12.818;2022-09-09T13:45:30;3.93;;;2.40;;
1454;SDS011;721;48.168;12.818;2022-09-09T13:47:59;2.63;;;2.43;;
1454;SDS011;721;48.168;12.818;2022-09-09T13:50:36;2.33;;;1.90;;
1454;SDS011;721;48.168;12.818;2022-09-09T13:53:04;2.30;;;2.07;;
1454;SDS011;721;48.168;12.818;2022-09-09T13:55:31;1.87;;;1.77;;
1454;SDS011;721;48.168;12.818;2022-09-09T13:57:58;1.60;;;1.50;;
1454;SDS011;721;48.168;12.818;2022-09-09T14:00:28;2.87;;;2.23;;
1454;SDS011;721;48.168;12.818;2022-09-09T14:02:56;2.20;;;2.10;;
1454;SDS011;721;48.168;12.818;2022-09-09T14:05:23;2.33;;;2.13;;
1454;SDS011;721;48.168;12.818;2022-09-09T14:07:50;2.93;;;1.83;;
1454;SDS011;721;48.168;12.818;2022-09-09T14:10:18;1.60;;;1.50;;
1454;SDS011;721;48.168;12.818;2022-09-09T14:12:45;2.03;;;1.80;;
1454;SDS011;721;48.168;12.818;2022-09-09T14:15:12;1.70;;;1.60;;
1454;SDS011;721;48.168;12.818;2022-09-09T14:17:39;1.90;;;1.70;;
1454;SDS011;721;48.168;12.818;2022-09-09T14:20:07;1.90;;;1.80;;
1454;SDS011;721;48.168;12.818;2022-09-09T14:22:35;3.07;;;1.37;;
1454;SDS011;721;48.168;12.818;2022-09-09T14:25:03;1.50;;;1.40;;
1454;SDS011;721;48.168;12.818;2022-09-09T14:27:32;1.20;;;1.20;;
1454;SDS011;721;48.168;12.818;2022-09-09T14:29:59;1.47;;;1.37;;
1454;SDS011;721;48.168;12.818;2022-09-09T14:32:26;2.07;;;1.63;;
1454;SDS011;721;48.168;12.818;2022-09-09T14:34:54;1.40;;;1.30;;
1454;SDS011;721;48.168;12.818;2022-09-09T14:37:21;2.07;;;1.90;;
1454;SDS011;721;48.168;12.818;2022-09-09T14:39:48;1.47;;;1.37;;
1454;SDS011;721;48.168;12.818;2022-09-09T14:42:15;2.17;;;1.20;;
1454;SDS011;721;48.168;12.818;2022-09-09T14:44:44;3.93;;;1.50;;
1454;SDS011;721;48.168;12.818;2022-09-09T14:47:10;1.53;;;1.23;;
1454;SDS011;721;48.168;12.818;2022-09-09T14:49:37;1.70;;;1.53;;
1454;SDS011;721;48.168;12.818;2022-09-09T14:52:04;1.97;;;1.77;;
1454;SDS011;721;48.168;12.818;2022-09-09T14:54:31;1.07;;;1.07;;
1454;SDS011;721;48.168;12.818;2022-09-09T14:56:58;1.10;;;1.00;;
1454;SDS011;721;48.168;12.818;2022-09-09T14:59:25;1.43;;;1.33;;
1454;SDS011;721;48.168;12.818;2022-09-09T15:01:53;2.07;;;1.40;;
1454;SDS011;721;48.168;12.818;2022-09-09T15:04:20;1.20;;;0.83;;
1454;SDS011;721;48.168;12.818;2022-09-09T15:06:47;1.90;;;1.00;;
1454;SDS011;721;48.168;12.818;2022-09-09T15:09:15;0.90;;;0.90;;
1454;SDS011;721;48.168;12.818;2022-09-09T15:11:41;1.67;;;1.00;;
1454;SDS011;721;48.168;12.818;2022-09-09T15:14:09;1.17;;;1.00;;
1454;SDS011;721;48.168;12.818;2022-09-09T15:16:37;1.13;;;1.03;;
1454;SDS011;721;48.168;12.818;2022-09-09T15:19:07;1.40;;;1.30;;
1454;SDS011;721;48.168;12.818;2022-09-09T15:21:35;1.30;;;1.20;;
1454;SDS011;721;48.168;12.818;2022-09-09T15:24:03;1.27;;;1.20;;
1454;SDS011;721;48.168;12.818;2022-09-09T15:26:33;1.20;;;1.10;;
1454;SDS011;721;48.168;12.818;2022-09-09T15:29:01;1.70;;;1.20;;
1454;SDS011;721;48.168;12.818;2022-09-09T15:31:28;1.30;;;1.20;;
1454;SDS011;721;48.168;12.818;2022-09-09T15:33:57;1.53;;;1.43;;
1454;SDS011;721;48.168;12.818;2022-09-09T15:36:28;1.63;;;1.20;;
1454;SDS011;721;48.168;12.818;2022-09-09T15:38:57;1.77;;;1.27;;